createdAt,value
2022-09-27T01:42:25.611Z,65.10
2022-09-27T01:47:39.927Z,64.93
2022-09-27T01:53:18.396Z,64.93
2022-09-27T01:58:48.460Z,64.00
2022-09-27T02:03:53.489Z,63.66
2022-09-27T02:09:24.962Z,64.02
2022-09-27T02:14:42.875Z,65.44
2022-09-27T02:20:06.843Z,65.68
2022-09-27T02:25:41.894Z,66.19
2022-09-27T02:30:43.551Z,66.88
2022-09-27T02:35:57.142Z,68.15
2022-09-27T02:40:58.746Z,68.41
2022-09-27T02:46:14.813Z,68.44
2022-09-27T02:51:41.158Z,69.01
2022-09-27T02:56:54.887Z,68.45
2022-09-27T03:02:49.410Z,68.54
2022-09-27T03:08:04.189Z,70.45
2022-09-27T03:13:06.372Z,72.57
2022-09-27T03:18:08.435Z,74.84
2022-09-27T03:23:28.745Z,78.67
2022-09-27T03:28:30.989Z,79.35
2022-09-27T03:33:33.589Z,81.67
2022-09-27T03:38:40.462Z,84.85
2022-09-27T03:43:46.156Z,88.09
2022-09-27T03:48:47.898Z,91.47
2022-09-27T03:53:50.524Z,95.92
2022-09-27T03:58:52.181Z,97.59
2022-09-27T04:03:54.288Z,98.24
2022-09-27T04:09:05.090Z,100.00
2022-09-27T04:14:25.715Z,100.00
2022-09-27T04:19:47.218Z,97.97
2022-09-27T04:24:48.969Z,99.50
2022-09-27T04:30:01.638Z,100.00
2022-09-27T04:35:56.501Z,99.95
2022-09-27T04:41:02.073Z,100.00
2022-09-27T04:46:07.760Z,100.00
2022-09-27T04:51:10.194Z,100.00
2022-09-27T04:56:13.028Z,100.00
2022-09-27T05:01:14.744Z,100.00
2022-09-27T05:06:36.624Z,100.00
2022-09-27T05:11:53.187Z,100.00
2022-09-27T05:16:58.196Z,100.00
2022-09-27T05:22:23.013Z,100.00
2022-09-27T05:27:26.221Z,100.00
2022-09-27T05:32:29.177Z,100.00
2022-09-27T05:37:55.825Z,100.00
2022-09-27T05:42:57.538Z,100.00
2022-09-27T05:47:59.470Z,100.00
2022-09-27T05:53:02.585Z,100.00
2022-09-27T05:58:06.902Z,100.00
2022-09-27T06:03:19.955Z,100.00
2022-09-27T06:08:40.701Z,100.00
2022-09-27T06:13:46.642Z,96.83
2022-09-27T06:18:49.124Z,98.19
2022-09-27T06:23:54.177Z,100.00
2022-09-27T06:29:02.545Z,97.97
2022-09-27T06:34:05.816Z,100.00
2022-09-27T06:39:07.532Z,100.00
2022-09-27T06:44:21.467Z,100.00
2022-09-27T06:49:46.179Z,100.00
2022-09-27T06:54:50.443Z,100.00
2022-09-27T07:00:10.935Z,100.00
2022-09-27T07:05:59.026Z,93.75
2022-09-27T07:11:19.627Z,91.72
2022-09-27T07:16:21.297Z,91.93
2022-09-27T07:21:23.145Z,87.00
2022-09-27T07:26:25.270Z,88.92
2022-09-27T07:31:27.004Z,84.22
2022-09-27T07:36:30.101Z,84.51
2022-09-27T07:41:33.191Z,83.37
2022-09-27T07:46:35.339Z,83.27
2022-09-27T07:51:54.496Z,83.51
2022-09-27T07:57:23.643Z,86.23
2022-09-27T08:02:28.036Z,82.50
2022-09-27T08:07:31.544Z,78.27
2022-09-27T08:12:33.395Z,77.38
2022-09-27T08:17:35.233Z,76.81
2022-09-27T08:22:45.787Z,76.43
2022-09-27T08:28:13.951Z,76.41
2022-09-27T08:33:55.589Z,75.14
2022-09-27T08:39:36.819Z,74.39
2022-09-27T08:45:03.413Z,74.62
2022-09-27T08:50:39.949Z,71.27
2022-09-27T09:03:32.109Z,68.18
2022-09-27T09:09:57.961Z,67.46
2022-09-27T09:15:22.777Z,71.11
2022-09-27T09:20:40.344Z,76.90
2022-09-27T09:26:00.706Z,78.50
2022-09-27T09:31:32.483Z,76.49
2022-09-27T09:36:43.647Z,74.91
2022-09-27T09:41:54.114Z,72.81
2022-09-27T09:47:01.563Z,72.50
2022-09-27T09:52:12.714Z,71.36
2022-09-27T09:57:37.624Z,75.51
2022-09-27T10:02:56.965Z,70.48
2022-09-27T10:08:04.852Z,70.73
2022-09-27T10:13:29.565Z,67.17
2022-09-27T10:18:49.040Z,67.27
2022-09-27T10:24:12.402Z,65.73
2022-09-27T10:29:59.660Z,66.47
2022-09-27T10:35:31.869Z,67.62
2022-09-27T10:41:06.781Z,66.45
2022-09-27T10:46:29.656Z,67.75
2022-09-27T10:52:01.396Z,71.53
2022-09-27T10:57:34.693Z,74.23
2022-09-27T11:02:45.061Z,73.28
2022-09-27T11:08:00.091Z,72.03
2022-09-27T11:13:32.678Z,69.93
2022-09-27T11:18:53.702Z,70.79
2022-09-27T11:24:11.226Z,73.16
2022-09-27T11:29:41.826Z,72.87
2022-09-27T11:35:20.262Z,72.51
2022-09-27T11:41:13.311Z,72.27
2022-09-27T11:53:01.290Z,79.17
2022-09-27T11:58:26.416Z,77.30
2022-09-27T12:04:05.587Z,73.18
2022-09-27T12:09:14.492Z,72.38
2022-09-27T12:21:12.863Z,77.15
2022-09-27T12:26:44.549Z,75.12
2022-09-27T12:31:54.672Z,76.92
2022-09-27T12:37:08.903Z,76.09
2022-09-27T12:42:21.320Z,71.87
2022-09-27T12:47:34.954Z,69.92
2022-09-27T12:52:43.558Z,69.76
2022-09-27T12:58:09.850Z,71.27
2022-09-27T13:03:30.657Z,70.78
2022-09-27T13:09:13.680Z,71.29
2022-09-27T13:14:22.922Z,69.52
2022-09-27T13:19:44.367Z,69.99
2022-09-27T13:24:54.020Z,72.46
2022-09-27T13:30:35.485Z,67.66
2022-09-27T13:35:37.444Z,67.10
2022-09-27T13:40:45.033Z,66.35
2022-09-27T13:46:05.774Z,64.85
2022-09-27T13:51:35.155Z,63.63
2022-09-27T13:56:36.986Z,66.31
2022-09-27T14:01:51.219Z,64.25
2022-09-27T14:07:00.007Z,64.96
2022-09-27T14:12:10.332Z,65.17
2022-09-27T14:17:12.821Z,65.21
2022-09-27T14:22:18.157Z,66.32
2022-09-27T14:27:38.279Z,66.88
2022-09-27T14:33:28.498Z,68.28
2022-09-27T14:38:38.143Z,69.57
2022-09-27T14:43:50.536Z,72.08
2022-09-27T14:48:53.214Z,68.23
2022-09-27T14:53:59.012Z,66.20
2022-09-27T14:59:03.692Z,65.87
2022-09-27T15:04:08.389Z,67.79
2022-09-27T15:09:14.206Z,66.88
2022-09-27T15:14:19.890Z,68.57
2022-09-27T15:19:27.835Z,68.34
2022-09-27T15:24:47.704Z,69.73
2022-09-27T15:29:51.388Z,68.53
2022-09-27T15:34:54.655Z,69.52
2022-09-27T15:40:08.834Z,69.14
2022-09-27T15:45:38.956Z,68.52
2022-09-27T15:50:41.438Z,68.75
2022-09-27T15:55:45.100Z,66.21
2022-09-27T16:01:02.665Z,67.97
2022-09-27T16:06:04.469Z,66.91
2022-09-27T16:11:06.437Z,66.81
2022-09-27T16:16:14.604Z,67.87
2022-09-27T16:21:16.822Z,67.29
2022-09-27T16:26:19.789Z,66.39
2022-09-27T16:31:21.614Z,67.00
2022-09-27T16:36:23.377Z,71.03
2022-09-27T16:41:25.036Z,76.07
2022-09-27T16:46:27.384Z,78.04
2022-09-27T16:51:47.984Z,80.85
2022-09-27T16:56:52.165Z,83.87
2022-09-27T17:01:57.490Z,85.81
2022-09-27T17:06:59.378Z,85.94
2022-09-27T17:12:01.016Z,86.09
2022-09-27T17:17:02.782Z,88.09
2022-09-27T17:22:04.351Z,85.70
2022-09-27T17:27:05.913Z,87.71
2022-09-27T17:32:08.784Z,88.79
2022-09-27T17:37:11.025Z,88.88
2022-09-27T17:42:12.708Z,88.74
2022-09-27T17:47:33.123Z,89.46
2022-09-27T17:52:35.094Z,89.09
2022-09-27T17:57:36.761Z,88.00
2022-09-27T18:02:38.405Z,87.77
2022-09-27T18:07:40.228Z,86.80
2022-09-27T18:12:43.401Z,87.13
2022-09-27T18:17:45.841Z,87.09
2022-09-27T18:22:47.417Z,86.08
2022-09-27T18:27:51.516Z,86.69
2022-09-27T18:32:53.156Z,86.04
2022-09-27T18:37:54.779Z,83.95
2022-09-27T18:42:56.420Z,84.62
2022-09-27T18:47:57.989Z,83.08
2022-09-27T18:52:59.527Z,84.29
2022-09-27T18:58:01.013Z,84.04
2022-09-27T19:03:02.889Z,83.80
2022-09-27T19:08:04.456Z,84.18
2022-09-27T19:13:06.406Z,83.76
2022-09-27T19:18:08.015Z,84.43
2022-09-27T19:23:09.631Z,83.27
2022-09-27T19:28:14.250Z,80.36
2022-09-27T19:33:15.939Z,79.46
2022-09-27T19:38:20.148Z,77.53
2022-09-27T19:43:21.753Z,77.29
2022-09-27T19:48:23.604Z,78.13
2022-09-27T19:53:29.851Z,78.51
2022-09-27T19:58:35.419Z,79.81
2022-09-27T20:03:39.839Z,81.19
2022-09-27T20:08:42.845Z,81.07
2022-09-27T20:13:44.988Z,82.75
2022-09-27T20:18:49.674Z,85.00
2022-09-27T20:23:53.494Z,84.52
2022-09-27T20:28:57.495Z,85.50
2022-09-27T20:34:00.430Z,85.12
2022-09-27T20:39:04.796Z,85.70
2022-09-27T20:44:11.761Z,86.02
2022-09-27T20:49:18.580Z,87.22
2022-09-27T20:54:20.371Z,87.11
2022-09-27T20:59:23.445Z,87.91
2022-09-27T21:04:25.138Z,87.98
2022-09-27T21:09:26.764Z,88.04
2022-09-27T21:14:28.270Z,89.31
2022-09-27T21:19:29.802Z,89.37
2022-09-27T21:24:31.329Z,90.74
2022-09-27T21:29:32.934Z,91.85
2022-09-27T21:34:34.481Z,92.60
2022-09-27T21:39:36.052Z,92.57
2022-09-27T21:44:37.561Z,92.57
2022-09-27T21:49:39.100Z,91.77
2022-09-27T21:54:40.604Z,92.57
2022-09-27T21:59:42.117Z,92.55
2022-09-27T22:04:43.818Z,91.41
2022-09-27T22:09:45.401Z,91.26
2022-09-27T22:14:47.800Z,91.97
2022-09-27T22:19:49.383Z,91.17
2022-09-27T22:24:50.940Z,93.19
2022-09-27T22:29:52.479Z,92.70
2022-09-27T22:34:54.042Z,92.89
2022-09-27T22:39:56.344Z,92.21
2022-09-27T22:44:57.907Z,92.98
2022-09-27T22:49:59.442Z,92.03
2022-09-27T22:55:01.013Z,91.68
2022-09-27T23:00:02.764Z,90.80
2022-09-27T23:05:04.573Z,90.78
2022-09-27T23:10:07.059Z,92.57
2022-09-27T23:15:09.152Z,93.25
2022-09-27T23:20:10.664Z,93.91
2022-09-27T23:25:12.280Z,93.03
2022-09-27T23:30:21.632Z,90.65
2022-09-27T23:35:23.359Z,92.85
2022-09-27T23:40:25.242Z,93.84
2022-09-27T23:45:27.711Z,94.95
2022-09-27T23:50:29.253Z,94.77
2022-09-27T23:55:30.750Z,92.85
